sensor_id;sensor_type;location;lat;lon;timestamp;P1;durP1;ratioP1;P2;durP2;ratioP2
4895;SDS011;2463;49.948;8.472;2022-11-14T00:00:58;101.95;;;9.10;;
4895;SDS011;2463;49.948;8.472;2022-11-14T00:03:24;104.32;;;9.63;;
4895;SDS011;2463;49.948;8.472;2022-11-14T00:05:51;106.45;;;10.27;;
4895;SDS011;2463;49.948;8.472;2022-11-14T00:08:22;105.97;;;10.60;;
4895;SDS011;2463;49.948;8.472;2022-11-14T00:10:53;112.38;;;12.18;;
4895;SDS011;2463;49.948;8.472;2022-11-14T00:13:20;109.03;;;12.73;;
4895;SDS011;2463;49.948;8.472;2022-11-14T00:15:47;112.75;;;12.27;;
4895;SDS011;2463;49.948;8.472;2022-11-14T00:18:16;116.38;;;13.45;;
4895;SDS011;2463;49.948;8.472;2022-11-14T00:20:46;111.68;;;13.20;;
4895;SDS011;2463;49.948;8.472;2022-11-14T00:23:13;121.35;;;15.07;;
4895;SDS011;2463;49.948;8.472;2022-11-14T00:25:40;117.30;;;14.55;;
4895;SDS011;2463;49.948;8.472;2022-11-14T00:28:08;115.47;;;14.93;;
4895;SDS011;2463;49.948;8.472;2022-11-14T00:30:34;115.22;;;15.63;;
4895;SDS011;2463;49.948;8.472;2022-11-14T00:33:01;120.30;;;17.42;;
4895;SDS011;2463;49.948;8.472;2022-11-14T00:35:28;118.93;;;16.70;;
4895;SDS011;2463;49.948;8.472;2022-11-14T00:37:54;120.15;;;17.13;;
4895;SDS011;2463;49.948;8.472;2022-11-14T00:40:21;119.53;;;17.15;;
4895;SDS011;2463;49.948;8.472;2022-11-14T00:42:48;120.22;;;18.33;;
4895;SDS011;2463;49.948;8.472;2022-11-14T00:45:14;126.28;;;15.45;;
4895;SDS011;2463;49.948;8.472;2022-11-14T00:47:41;119.50;;;16.25;;
4895;SDS011;2463;49.948;8.472;2022-11-14T00:50:08;121.55;;;16.05;;
4895;SDS011;2463;49.948;8.472;2022-11-14T00:52:35;129.52;;;16.05;;
4895;SDS011;2463;49.948;8.472;2022-11-14T00:55:02;128.20;;;17.38;;
4895;SDS011;2463;49.948;8.472;2022-11-14T00:57:29;115.22;;;15.05;;
4895;SDS011;2463;49.948;8.472;2022-11-14T00:59:55;150.27;;;17.70;;
4895;SDS011;2463;49.948;8.472;2022-11-14T01:02:22;126.63;;;16.63;;
4895;SDS011;2463;49.948;8.472;2022-11-14T01:04:49;132.27;;;18.13;;
4895;SDS011;2463;49.948;8.472;2022-11-14T01:07:15;129.98;;;18.88;;
4895;SDS011;2463;49.948;8.472;2022-11-14T01:09:42;135.32;;;17.02;;
4895;SDS011;2463;49.948;8.472;2022-11-14T01:12:09;130.05;;;17.90;;
4895;SDS011;2463;49.948;8.472;2022-11-14T01:14:36;130.18;;;17.58;;
4895;SDS011;2463;49.948;8.472;2022-11-14T01:17:04;150.05;;;18.92;;
4895;SDS011;2463;49.948;8.472;2022-11-14T01:19:31;134.70;;;18.80;;
4895;SDS011;2463;49.948;8.472;2022-11-14T01:21:57;150.23;;;19.55;;
4895;SDS011;2463;49.948;8.472;2022-11-14T01:24:31;138.07;;;18.38;;
4895;SDS011;2463;49.948;8.472;2022-11-14T01:26:59;130.30;;;17.10;;
4895;SDS011;2463;49.948;8.472;2022-11-14T01:29:26;136.75;;;18.58;;
4895;SDS011;2463;49.948;8.472;2022-11-14T01:31:53;137.95;;;18.50;;
4895;SDS011;2463;49.948;8.472;2022-11-14T01:34:19;131.30;;;16.95;;
4895;SDS011;2463;49.948;8.472;2022-11-14T01:36:46;123.03;;;18.23;;
4895;SDS011;2463;49.948;8.472;2022-11-14T01:39:13;122.13;;;15.13;;
4895;SDS011;2463;49.948;8.472;2022-11-14T01:41:39;139.18;;;16.00;;
4895;SDS011;2463;49.948;8.472;2022-11-14T01:44:16;143.02;;;16.42;;
4895;SDS011;2463;49.948;8.472;2022-11-14T01:47:02;126.72;;;16.55;;
4895;SDS011;2463;49.948;8.472;2022-11-14T01:49:35;119.50;;;15.30;;
4895;SDS011;2463;49.948;8.472;2022-11-14T01:52:05;131.45;;;16.55;;
4895;SDS011;2463;49.948;8.472;2022-11-14T01:54:38;145.20;;;15.52;;
4895;SDS011;2463;49.948;8.472;2022-11-14T01:57:08;125.30;;;17.20;;
4895;SDS011;2463;49.948;8.472;2022-11-14T01:59:37;120.50;;;16.17;;
4895;SDS011;2463;49.948;8.472;2022-11-14T02:02:09;129.98;;;16.27;;
4895;SDS011;2463;49.948;8.472;2022-11-14T02:04:48;124.38;;;15.15;;
4895;SDS011;2463;49.948;8.472;2022-11-14T02:07:23;141.32;;;15.15;;
4895;SDS011;2463;49.948;8.472;2022-11-14T02:09:52;129.50;;;15.00;;
4895;SDS011;2463;49.948;8.472;2022-11-14T02:12:20;119.30;;;14.75;;
4895;SDS011;2463;49.948;8.472;2022-11-14T02:14:48;118.28;;;15.55;;
4895;SDS011;2463;49.948;8.472;2022-11-14T02:17:18;131.50;;;14.27;;
4895;SDS011;2463;49.948;8.472;2022-11-14T02:20:40;134.52;;;15.68;;
4895;SDS011;2463;49.948;8.472;2022-11-14T02:22:46;131.90;;;14.90;;
4895;SDS011;2463;49.948;8.472;2022-11-14T02:25:13;151.80;;;16.60;;
4895;SDS011;2463;49.948;8.472;2022-11-14T02:27:43;122.00;;;14.90;;
4895;SDS011;2463;49.948;8.472;2022-11-14T02:30:14;121.80;;;14.38;;
4895;SDS011;2463;49.948;8.472;2022-11-14T02:32:43;121.53;;;16.02;;
4895;SDS011;2463;49.948;8.472;2022-11-14T02:35:30;134.77;;;15.50;;
4895;SDS011;2463;49.948;8.472;2022-11-14T02:37:56;117.68;;;13.98;;
4895;SDS011;2463;49.948;8.472;2022-11-14T02:40:23;116.93;;;15.20;;
4895;SDS011;2463;49.948;8.472;2022-11-14T02:42:49;118.18;;;15.02;;
4895;SDS011;2463;49.948;8.472;2022-11-14T02:45:16;118.78;;;14.27;;
4895;SDS011;2463;49.948;8.472;2022-11-14T02:47:44;119.68;;;15.18;;
4895;SDS011;2463;49.948;8.472;2022-11-14T02:50:11;130.02;;;14.65;;
4895;SDS011;2463;49.948;8.472;2022-11-14T02:52:38;118.90;;;14.80;;
4895;SDS011;2463;49.948;8.472;2022-11-14T02:55:04;118.18;;;13.60;;
4895;SDS011;2463;49.948;8.472;2022-11-14T02:57:31;120.15;;;16.77;;
4895;SDS011;2463;49.948;8.472;2022-11-14T02:59:58;119.70;;;14.57;;
4895;SDS011;2463;49.948;8.472;2022-11-14T03:02:25;126.45;;;15.98;;
4895;SDS011;2463;49.948;8.472;2022-11-14T03:04:51;123.43;;;16.00;;
4895;SDS011;2463;49.948;8.472;2022-11-14T03:07:18;118.78;;;15.30;;
4895;SDS011;2463;49.948;8.472;2022-11-14T03:09:45;113.55;;;13.85;;
4895;SDS011;2463;49.948;8.472;2022-11-14T03:12:15;118.47;;;15.65;;
4895;SDS011;2463;49.948;8.472;2022-11-14T03:14:43;115.00;;;14.18;;
4895;SDS011;2463;49.948;8.472;2022-11-14T03:17:09;115.07;;;14.23;;
4895;SDS011;2463;49.948;8.472;2022-11-14T03:19:37;127.38;;;14.48;;
4895;SDS011;2463;49.948;8.472;2022-11-14T03:22:03;119.40;;;15.10;;
4895;SDS011;2463;49.948;8.472;2022-11-14T03:24:30;115.55;;;13.50;;
4895;SDS011;2463;49.948;8.472;2022-11-14T03:26:57;115.63;;;13.02;;
4895;SDS011;2463;49.948;8.472;2022-11-14T03:29:24;115.10;;;14.40;;
4895;SDS011;2463;49.948;8.472;2022-11-14T03:31:50;115.57;;;13.85;;
4895;SDS011;2463;49.948;8.472;2022-11-14T03:34:17;117.82;;;13.93;;
4895;SDS011;2463;49.948;8.472;2022-11-14T03:36:44;114.00;;;13.82;;
4895;SDS011;2463;49.948;8.472;2022-11-14T03:39:10;114.53;;;15.07;;
4895;SDS011;2463;49.948;8.472;2022-11-14T03:41:37;115.97;;;14.65;;
4895;SDS011;2463;49.948;8.472;2022-11-14T03:44:04;114.50;;;13.77;;
4895;SDS011;2463;49.948;8.472;2022-11-14T03:46:30;111.43;;;14.75;;
4895;SDS011;2463;49.948;8.472;2022-11-14T03:48:57;115.32;;;13.75;;
4895;SDS011;2463;49.948;8.472;2022-11-14T03:51:24;112.93;;;12.80;;
4895;SDS011;2463;49.948;8.472;2022-11-14T03:53:50;112.90;;;13.55;;
4895;SDS011;2463;49.948;8.472;2022-11-14T03:56:17;115.53;;;13.45;;
4895;SDS011;2463;49.948;8.472;2022-11-14T03:58:43;111.85;;;13.20;;
4895;SDS011;2463;49.948;8.472;2022-11-14T04:01:10;120.82;;;13.73;;
4895;SDS011;2463;49.948;8.472;2022-11-14T04:03:37;108.80;;;12.18;;
4895;SDS011;2463;49.948;8.472;2022-11-14T04:06:03;111.47;;;14.00;;
4895;SDS011;2463;49.948;8.472;2022-11-14T04:08:30;108.68;;;12.10;;
4895;SDS011;2463;49.948;8.472;2022-11-14T04:10:58;110.07;;;13.23;;
4895;SDS011;2463;49.948;8.472;2022-11-14T04:13:25;110.13;;;12.95;;
4895;SDS011;2463;49.948;8.472;2022-11-14T04:15:55;111.35;;;13.13;;
4895;SDS011;2463;49.948;8.472;2022-11-14T04:18:23;117.15;;;12.68;;
4895;SDS011;2463;49.948;8.472;2022-11-14T04:20:51;112.75;;;11.45;;
4895;SDS011;2463;49.948;8.472;2022-11-14T04:23:18;110.22;;;12.55;;
4895;SDS011;2463;49.948;8.472;2022-11-14T04:25:45;112.45;;;12.75;;
4895;SDS011;2463;49.948;8.472;2022-11-14T04:28:12;112.72;;;12.82;;
4895;SDS011;2463;49.948;8.472;2022-11-14T04:30:39;109.85;;;13.00;;
4895;SDS011;2463;49.948;8.472;2022-11-14T04:33:05;111.75;;;13.82;;
4895;SDS011;2463;49.948;8.472;2022-11-14T04:35:32;111.35;;;13.45;;
4895;SDS011;2463;49.948;8.472;2022-11-14T04:37:59;110.53;;;12.43;;
4895;SDS011;2463;49.948;8.472;2022-11-14T04:40:25;111.93;;;12.80;;
4895;SDS011;2463;49.948;8.472;2022-11-14T04:42:52;108.45;;;13.38;;
4895;SDS011;2463;49.948;8.472;2022-11-14T04:45:19;104.97;;;11.98;;
4895;SDS011;2463;49.948;8.472;2022-11-14T04:47:45;107.40;;;11.77;;
4895;SDS011;2463;49.948;8.472;2022-11-14T04:50:12;107.05;;;12.30;;
4895;SDS011;2463;49.948;8.472;2022-11-14T04:52:39;110.50;;;12.80;;
4895;SDS011;2463;49.948;8.472;2022-11-14T04:55:05;109.60;;;12.35;;
4895;SDS011;2463;49.948;8.472;2022-11-14T04:57:32;110.53;;;13.18;;
4895;SDS011;2463;49.948;8.472;2022-11-14T04:59:59;109.80;;;13.10;;
4895;SDS011;2463;49.948;8.472;2022-11-14T05:02:26;112.03;;;14.00;;
4895;SDS011;2463;49.948;8.472;2022-11-14T05:04:57;105.80;;;11.75;;
4895;SDS011;2463;49.948;8.472;2022-11-14T05:07:23;106.82;;;11.80;;
4895;SDS011;2463;49.948;8.472;2022-11-14T05:09:50;105.00;;;11.52;;
4895;SDS011;2463;49.948;8.472;2022-11-14T05:12:17;105.45;;;11.43;;
4895;SDS011;2463;49.948;8.472;2022-11-14T05:14:44;106.95;;;11.18;;
4895;SDS011;2463;49.948;8.472;2022-11-14T05:17:10;105.68;;;12.13;;
4895;SDS011;2463;49.948;8.472;2022-11-14T05:19:37;105.20;;;10.75;;
4895;SDS011;2463;49.948;8.472;2022-11-14T05:22:03;104.70;;;11.50;;
4895;SDS011;2463;49.948;8.472;2022-11-14T05:24:30;105.63;;;11.48;;
4895;SDS011;2463;49.948;8.472;2022-11-14T05:26:57;108.68;;;12.15;;
4895;SDS011;2463;49.948;8.472;2022-11-14T05:29:24;105.68;;;11.13;;
4895;SDS011;2463;49.948;8.472;2022-11-14T05:31:51;106.32;;;10.93;;
4895;SDS011;2463;49.948;8.472;2022-11-14T05:34:17;105.38;;;10.63;;
4895;SDS011;2463;49.948;8.472;2022-11-14T05:36:44;106.57;;;11.43;;
4895;SDS011;2463;49.948;8.472;2022-11-14T05:39:11;109.50;;;11.95;;
4895;SDS011;2463;49.948;8.472;2022-11-14T05:41:37;105.60;;;10.23;;
4895;SDS011;2463;49.948;8.472;2022-11-14T05:44:04;105.65;;;11.57;;
4895;SDS011;2463;49.948;8.472;2022-11-14T05:46:31;104.82;;;12.10;;
4895;SDS011;2463;49.948;8.472;2022-11-14T05:48:57;104.38;;;11.15;;
4895;SDS011;2463;49.948;8.472;2022-11-14T05:51:24;105.35;;;10.85;;
4895;SDS011;2463;49.948;8.472;2022-11-14T05:53:51;104.30;;;10.82;;
4895;SDS011;2463;49.948;8.472;2022-11-14T05:56:17;104.70;;;10.63;;
4895;SDS011;2463;49.948;8.472;2022-11-14T05:58:44;106.63;;;11.52;;
4895;SDS011;2463;49.948;8.472;2022-11-14T06:01:12;104.70;;;10.88;;
4895;SDS011;2463;49.948;8.472;2022-11-14T06:03:44;103.32;;;10.55;;
4895;SDS011;2463;49.948;8.472;2022-11-14T06:06:13;103.07;;;10.80;;
4895;SDS011;2463;49.948;8.472;2022-11-14T06:08:41;106.75;;;11.80;;
4895;SDS011;2463;49.948;8.472;2022-11-14T06:11:09;108.93;;;12.20;;
4895;SDS011;2463;49.948;8.472;2022-11-14T06:13:41;107.03;;;12.20;;
4895;SDS011;2463;49.948;8.472;2022-11-14T06:16:09;103.70;;;10.77;;
4895;SDS011;2463;49.948;8.472;2022-11-14T06:18:37;107.22;;;10.90;;
4895;SDS011;2463;49.948;8.472;2022-11-14T06:21:12;106.15;;;11.35;;
4895;SDS011;2463;49.948;8.472;2022-11-14T06:23:43;105.18;;;10.85;;
4895;SDS011;2463;49.948;8.472;2022-11-14T06:26:26;106.75;;;11.55;;
4895;SDS011;2463;49.948;8.472;2022-11-14T06:28:55;107.18;;;11.20;;
4895;SDS011;2463;49.948;8.472;2022-11-14T06:31:23;106.00;;;12.10;;
4895;SDS011;2463;49.948;8.472;2022-11-14T06:33:50;104.53;;;11.65;;
4895;SDS011;2463;49.948;8.472;2022-11-14T06:36:17;103.40;;;11.07;;
4895;SDS011;2463;49.948;8.472;2022-11-14T06:38:44;107.70;;;12.27;;
4895;SDS011;2463;49.948;8.472;2022-11-14T06:41:12;105.10;;;11.85;;
4895;SDS011;2463;49.948;8.472;2022-11-14T06:43:40;107.70;;;12.63;;
4895;SDS011;2463;49.948;8.472;2022-11-14T06:46:08;107.47;;;11.65;;
4895;SDS011;2463;49.948;8.472;2022-11-14T06:48:36;102.45;;;11.18;;
4895;SDS011;2463;49.948;8.472;2022-11-14T06:51:04;104.07;;;11.15;;
4895;SDS011;2463;49.948;8.472;2022-11-14T06:53:32;105.63;;;11.18;;
4895;SDS011;2463;49.948;8.472;2022-11-14T06:56:01;102.43;;;10.60;;
4895;SDS011;2463;49.948;8.472;2022-11-14T06:58:31;103.32;;;11.10;;
4895;SDS011;2463;49.948;8.472;2022-11-14T07:01:11;110.68;;;12.05;;
4895;SDS011;2463;49.948;8.472;2022-11-14T07:03:41;107.30;;;11.70;;
4895;SDS011;2463;49.948;8.472;2022-11-14T07:06:10;108.80;;;11.90;;
4895;SDS011;2463;49.948;8.472;2022-11-14T07:08:38;105.28;;;11.25;;
4895;SDS011;2463;49.948;8.472;2022-11-14T07:11:13;107.88;;;13.45;;
4895;SDS011;2463;49.948;8.472;2022-11-14T07:13:52;110.70;;;13.02;;
4895;SDS011;2463;49.948;8.472;2022-11-14T07:16:32;111.70;;;12.95;;
4895;SDS011;2463;49.948;8.472;2022-11-14T07:19:01;114.22;;;13.52;;
4895;SDS011;2463;49.948;8.472;2022-11-14T07:21:32;108.43;;;13.52;;
4895;SDS011;2463;49.948;8.472;2022-11-14T07:24:00;109.13;;;12.80;;
4895;SDS011;2463;49.948;8.472;2022-11-14T07:26:26;107.50;;;12.23;;
4895;SDS011;2463;49.948;8.472;2022-11-14T07:28:53;111.05;;;12.48;;
4895;SDS011;2463;49.948;8.472;2022-11-14T07:31:27;107.85;;;12.95;;
4895;SDS011;2463;49.948;8.472;2022-11-14T07:33:54;111.07;;;13.00;;
4895;SDS011;2463;49.948;8.472;2022-11-14T07:36:20;117.25;;;14.73;;
4895;SDS011;2463;49.948;8.472;2022-11-14T07:38:48;111.82;;;14.57;;
4895;SDS011;2463;49.948;8.472;2022-11-14T07:41:15;110.30;;;13.40;;
4895;SDS011;2463;49.948;8.472;2022-11-14T07:43:42;116.97;;;14.75;;
4895;SDS011;2463;49.948;8.472;2022-11-14T07:46:13;112.22;;;15.18;;
4895;SDS011;2463;49.948;8.472;2022-11-14T07:48:41;111.55;;;14.07;;
4895;SDS011;2463;49.948;8.472;2022-11-14T07:51:09;120.13;;;18.25;;
4895;SDS011;2463;49.948;8.472;2022-11-14T07:53:40;116.57;;;16.77;;
4895;SDS011;2463;49.948;8.472;2022-11-14T07:56:07;115.47;;;15.57;;
4895;SDS011;2463;49.948;8.472;2022-11-14T07:58:35;113.55;;;14.88;;
4895;SDS011;2463;49.948;8.472;2022-11-14T08:01:03;119.50;;;15.95;;
4895;SDS011;2463;49.948;8.472;2022-11-14T08:03:31;110.40;;;14.93;;
4895;SDS011;2463;49.948;8.472;2022-11-14T08:06:02;116.93;;;16.38;;
4895;SDS011;2463;49.948;8.472;2022-11-14T08:08:31;116.05;;;15.63;;
4895;SDS011;2463;49.948;8.472;2022-11-14T08:10:58;116.75;;;16.25;;
4895;SDS011;2463;49.948;8.472;2022-11-14T08:13:25;116.25;;;15.80;;
4895;SDS011;2463;49.948;8.472;2022-11-14T08:16:02;117.30;;;15.60;;
4895;SDS011;2463;49.948;8.472;2022-11-14T08:18:38;117.68;;;16.75;;
4895;SDS011;2463;49.948;8.472;2022-11-14T08:21:05;113.88;;;15.13;;
4895;SDS011;2463;49.948;8.472;2022-11-14T08:23:32;120.95;;;17.08;;
4895;SDS011;2463;49.948;8.472;2022-11-14T08:25:59;118.88;;;17.95;;
4895;SDS011;2463;49.948;8.472;2022-11-14T08:28:25;117.57;;;16.70;;
4895;SDS011;2463;49.948;8.472;2022-11-14T08:30:57;126.03;;;17.60;;
4895;SDS011;2463;49.948;8.472;2022-11-14T08:33:28;118.88;;;17.70;;
4895;SDS011;2463;49.948;8.472;2022-11-14T08:35:58;121.22;;;17.42;;
4895;SDS011;2463;49.948;8.472;2022-11-14T08:38:26;124.55;;;18.73;;
4895;SDS011;2463;49.948;8.472;2022-11-14T08:40:56;121.38;;;16.77;;
4895;SDS011;2463;49.948;8.472;2022-11-14T08:43:24;116.13;;;16.88;;
4895;SDS011;2463;49.948;8.472;2022-11-14T08:45:51;122.43;;;18.30;;
4895;SDS011;2463;49.948;8.472;2022-11-14T08:48:17;130.68;;;19.05;;
4895;SDS011;2463;49.948;8.472;2022-11-14T08:50:44;120.00;;;17.50;;
4895;SDS011;2463;49.948;8.472;2022-11-14T08:53:11;119.53;;;17.60;;
4895;SDS011;2463;49.948;8.472;2022-11-14T08:55:42;121.60;;;15.77;;
4895;SDS011;2463;49.948;8.472;2022-11-14T08:58:09;113.55;;;15.13;;
4895;SDS011;2463;49.948;8.472;2022-11-14T09:00:36;116.47;;;17.10;;
4895;SDS011;2463;49.948;8.472;2022-11-14T09:03:09;125.35;;;17.50;;
4895;SDS011;2463;49.948;8.472;2022-11-14T09:05:39;119.50;;;18.65;;
4895;SDS011;2463;49.948;8.472;2022-11-14T09:08:05;116.30;;;15.95;;
4895;SDS011;2463;49.948;8.472;2022-11-14T09:10:33;122.47;;;17.48;;
4895;SDS011;2463;49.948;8.472;2022-11-14T09:13:00;118.43;;;17.35;;
4895;SDS011;2463;49.948;8.472;2022-11-14T09:15:27;120.00;;;17.27;;
4895;SDS011;2463;49.948;8.472;2022-11-14T09:17:54;120.72;;;17.40;;
4895;SDS011;2463;49.948;8.472;2022-11-14T09:20:22;116.28;;;16.55;;
4895;SDS011;2463;49.948;8.472;2022-11-14T09:22:59;121.90;;;16.40;;
4895;SDS011;2463;49.948;8.472;2022-11-14T09:25:26;117.22;;;16.42;;
4895;SDS011;2463;49.948;8.472;2022-11-14T09:27:54;117.88;;;15.93;;
4895;SDS011;2463;49.948;8.472;2022-11-14T09:30:21;118.07;;;16.23;;
4895;SDS011;2463;49.948;8.472;2022-11-14T09:32:48;114.00;;;16.75;;
4895;SDS011;2463;49.948;8.472;2022-11-14T09:35:15;118.55;;;16.85;;
4895;SDS011;2463;49.948;8.472;2022-11-14T09:37:42;117.30;;;16.17;;
4895;SDS011;2463;49.948;8.472;2022-11-14T09:40:10;109.88;;;14.30;;
4895;SDS011;2463;49.948;8.472;2022-11-14T09:42:54;114.18;;;14.85;;
4895;SDS011;2463;49.948;8.472;2022-11-14T09:45:30;114.68;;;14.95;;
4895;SDS011;2463;49.948;8.472;2022-11-14T09:50:40;109.93;;;13.90;;
4895;SDS011;2463;49.948;8.472;2022-11-14T09:53:16;109.18;;;13.68;;
4895;SDS011;2463;49.948;8.472;2022-11-14T09:55:50;104.72;;;13.55;;
4895;SDS011;2463;49.948;8.472;2022-11-14T09:58:18;104.07;;;13.00;;
4895;SDS011;2463;49.948;8.472;2022-11-14T10:03:41;101.60;;;11.05;;
4895;SDS011;2463;49.948;8.472;2022-11-14T10:06:29;103.90;;;10.82;;
4895;SDS011;2463;49.948;8.472;2022-11-14T10:09:30;103.25;;;12.30;;
4895;SDS011;2463;49.948;8.472;2022-11-14T10:12:09;101.82;;;11.43;;
4895;SDS011;2463;49.948;8.472;2022-11-14T10:20:18;104.05;;;11.90;;
4895;SDS011;2463;49.948;8.472;2022-11-14T10:23:18;105.07;;;12.70;;
4895;SDS011;2463;49.948;8.472;2022-11-14T10:26:13;107.13;;;13.32;;
4895;SDS011;2463;49.948;8.472;2022-11-14T10:31:47;104.10;;;12.23;;
4895;SDS011;2463;49.948;8.472;2022-11-14T10:34:39;102.85;;;11.85;;
4895;SDS011;2463;49.948;8.472;2022-11-14T10:37:15;108.53;;;13.20;;
4895;SDS011;2463;49.948;8.472;2022-11-14T10:39:51;103.97;;;12.30;;
4895;SDS011;2463;49.948;8.472;2022-11-14T10:42:24;108.20;;;13.20;;
4895;SDS011;2463;49.948;8.472;2022-11-14T10:45:01;105.78;;;11.60;;
4895;SDS011;2463;49.948;8.472;2022-11-14T10:47:36;104.25;;;11.23;;
4895;SDS011;2463;49.948;8.472;2022-11-14T10:50:25;108.18;;;13.18;;
4895;SDS011;2463;49.948;8.472;2022-11-14T10:53:00;105.93;;;12.75;;
4895;SDS011;2463;49.948;8.472;2022-11-14T10:55:31;108.35;;;12.10;;
4895;SDS011;2463;49.948;8.472;2022-11-14T10:58:18;104.78;;;12.05;;
4895;SDS011;2463;49.948;8.472;2022-11-14T11:00:45;102.70;;;11.77;;
4895;SDS011;2463;49.948;8.472;2022-11-14T11:03:12;112.22;;;11.90;;
4895;SDS011;2463;49.948;8.472;2022-11-14T11:05:46;108.57;;;11.48;;
4895;SDS011;2463;49.948;8.472;2022-11-14T11:08:21;100.03;;;10.45;;
4895;SDS011;2463;49.948;8.472;2022-11-14T11:11:12;102.43;;;11.85;;
4895;SDS011;2463;49.948;8.472;2022-11-14T11:14:00;102.45;;;11.18;;
4895;SDS011;2463;49.948;8.472;2022-11-14T11:16:27;105.43;;;10.35;;
4895;SDS011;2463;49.948;8.472;2022-11-14T11:19:14;100.43;;;10.68;;
4895;SDS011;2463;49.948;8.472;2022-11-14T11:21:48;101.03;;;10.45;;
4895;SDS011;2463;49.948;8.472;2022-11-14T11:24:29;104.28;;;10.35;;
4895;SDS011;2463;49.948;8.472;2022-11-14T11:27:20;101.50;;;10.00;;
4895;SDS011;2463;49.948;8.472;2022-11-14T11:29:49;98.57;;;9.88;;
4895;SDS011;2463;49.948;8.472;2022-11-14T11:32:30;102.90;;;9.80;;
4895;SDS011;2463;49.948;8.472;2022-11-14T11:34:56;99.90;;;10.45;;
4895;SDS011;2463;49.948;8.472;2022-11-14T11:39:57;98.50;;;10.00;;
4895;SDS011;2463;49.948;8.472;2022-11-14T11:42:30;99.18;;;10.32;;
4895;SDS011;2463;49.948;8.472;2022-11-14T11:45:23;98.43;;;9.82;;
4895;SDS011;2463;49.948;8.472;2022-11-14T11:47:56;96.53;;;9.45;;
4895;SDS011;2463;49.948;8.472;2022-11-14T11:50:29;96.32;;;8.77;;
4895;SDS011;2463;49.948;8.472;2022-11-14T11:55:26;92.60;;;8.48;;
4895;SDS011;2463;49.948;8.472;2022-11-14T11:58:01;92.40;;;8.98;;
4895;SDS011;2463;49.948;8.472;2022-11-14T12:00:51;95.85;;;8.57;;
4895;SDS011;2463;49.948;8.472;2022-11-14T12:03:20;94.90;;;9.00;;
4895;SDS011;2463;49.948;8.472;2022-11-14T12:10:58;99.60;;;9.63;;
4895;SDS011;2463;49.948;8.472;2022-11-14T12:13:33;96.25;;;8.90;;
4895;SDS011;2463;49.948;8.472;2022-11-14T12:27:34;96.72;;;9.20;;
4895;SDS011;2463;49.948;8.472;2022-11-14T12:30:16;100.65;;;8.82;;
4895;SDS011;2463;49.948;8.472;2022-11-14T12:32:57;97.63;;;8.80;;
4895;SDS011;2463;49.948;8.472;2022-11-14T12:35:31;99.30;;;9.90;;
4895;SDS011;2463;49.948;8.472;2022-11-14T12:38:00;100.63;;;9.50;;
4895;SDS011;2463;49.948;8.472;2022-11-14T12:40:39;101.85;;;9.50;;
4895;SDS011;2463;49.948;8.472;2022-11-14T12:48:43;97.78;;;9.20;;
4895;SDS011;2463;49.948;8.472;2022-11-14T12:53:50;100.25;;;8.77;;
4895;SDS011;2463;49.948;8.472;2022-11-14T13:05:21;101.50;;;9.55;;
4895;SDS011;2463;49.948;8.472;2022-11-14T13:07:31;100.80;;;9.32;;
4895;SDS011;2463;49.948;8.472;2022-11-14T13:12:34;102.13;;;9.50;;
4895;SDS011;2463;49.948;8.472;2022-11-14T13:18:17;102.07;;;10.50;;
4895;SDS011;2463;49.948;8.472;2022-11-14T13:21:29;103.57;;;9.68;;
4895;SDS011;2463;49.948;8.472;2022-11-14T13:24:14;101.18;;;10.32;;
4895;SDS011;2463;49.948;8.472;2022-11-14T13:26:43;99.88;;;10.05;;
4895;SDS011;2463;49.948;8.472;2022-11-14T13:32:09;100.63;;;9.48;;
4895;SDS011;2463;49.948;8.472;2022-11-14T13:34:48;100.32;;;9.30;;
4895;SDS011;2463;49.948;8.472;2022-11-14T13:37:32;101.38;;;10.10;;
4895;SDS011;2463;49.948;8.472;2022-11-14T13:40:23;100.65;;;9.60;;
4895;SDS011;2463;49.948;8.472;2022-11-14T13:51:23;100.00;;;9.60;;
4895;SDS011;2463;49.948;8.472;2022-11-14T13:54:09;100.53;;;9.90;;
4895;SDS011;2463;49.948;8.472;2022-11-14T14:04:46;99.38;;;8.90;;
4895;SDS011;2463;49.948;8.472;2022-11-14T14:07:26;101.47;;;9.13;;
4895;SDS011;2463;49.948;8.472;2022-11-14T14:12:45;99.88;;;9.60;;
4895;SDS011;2463;49.948;8.472;2022-11-14T14:18:24;100.97;;;9.30;;
4895;SDS011;2463;49.948;8.472;2022-11-14T14:21:16;99.60;;;9.20;;
4895;SDS011;2463;49.948;8.472;2022-11-14T14:23:56;99.15;;;9.60;;
4895;SDS011;2463;49.948;8.472;2022-11-14T14:26:38;102.32;;;9.70;;
4895;SDS011;2463;49.948;8.472;2022-11-14T14:29:29;107.07;;;10.77;;
4895;SDS011;2463;49.948;8.472;2022-11-14T14:32:14;103.57;;;10.15;;
4895;SDS011;2463;49.948;8.472;2022-11-14T14:34:43;100.20;;;9.63;;
4895;SDS011;2463;49.948;8.472;2022-11-14T14:37:20;102.25;;;10.20;;
4895;SDS011;2463;49.948;8.472;2022-11-14T14:39:56;102.15;;;10.32;;
4895;SDS011;2463;49.948;8.472;2022-11-14T14:42:29;100.00;;;9.80;;
4895;SDS011;2463;49.948;8.472;2022-11-14T14:45:13;99.45;;;9.57;;
4895;SDS011;2463;49.948;8.472;2022-11-14T14:47:43;101.22;;;9.98;;
4895;SDS011;2463;49.948;8.472;2022-11-14T14:50:20;101.05;;;10.82;;
4895;SDS011;2463;49.948;8.472;2022-11-14T14:52:56;101.40;;;10.50;;
4895;SDS011;2463;49.948;8.472;2022-11-14T14:55:28;102.80;;;10.75;;
4895;SDS011;2463;49.948;8.472;2022-11-14T14:58:40;99.85;;;9.48;;
4895;SDS011;2463;49.948;8.472;2022-11-14T15:03:35;104.25;;;10.73;;
4895;SDS011;2463;49.948;8.472;2022-11-14T15:06:27;103.07;;;10.30;;
4895;SDS011;2463;49.948;8.472;2022-11-14T15:09:07;101.88;;;9.95;;
4895;SDS011;2463;49.948;8.472;2022-11-14T15:11:36;99.50;;;9.98;;
4895;SDS011;2463;49.948;8.472;2022-11-14T15:14:08;101.25;;;11.00;;
4895;SDS011;2463;49.948;8.472;2022-11-14T15:16:40;100.88;;;10.40;;
4895;SDS011;2463;49.948;8.472;2022-11-14T15:19:08;101.05;;;9.65;;
4895;SDS011;2463;49.948;8.472;2022-11-14T15:21:38;106.32;;;10.93;;
4895;SDS011;2463;49.948;8.472;2022-11-14T15:24:13;100.47;;;10.60;;
4895;SDS011;2463;49.948;8.472;2022-11-14T15:26:45;102.18;;;11.25;;
4895;SDS011;2463;49.948;8.472;2022-11-14T15:31:52;105.85;;;11.35;;
4895;SDS011;2463;49.948;8.472;2022-11-14T15:34:25;104.82;;;11.60;;
4895;SDS011;2463;49.948;8.472;2022-11-14T15:39:36;101.38;;;10.27;;
4895;SDS011;2463;49.948;8.472;2022-11-14T15:42:12;100.63;;;10.85;;
4895;SDS011;2463;49.948;8.472;2022-11-14T15:44:42;103.47;;;10.68;;
4895;SDS011;2463;49.948;8.472;2022-11-14T15:47:17;101.18;;;9.60;;
4895;SDS011;2463;49.948;8.472;2022-11-14T15:49:59;101.80;;;10.40;;
4895;SDS011;2463;49.948;8.472;2022-11-14T15:52:32;102.05;;;10.13;;
4895;SDS011;2463;49.948;8.472;2022-11-14T15:55:01;100.50;;;9.60;;
4895;SDS011;2463;49.948;8.472;2022-11-14T15:57:30;103.05;;;10.27;;
4895;SDS011;2463;49.948;8.472;2022-11-14T15:59:57;105.93;;;10.02;;
4895;SDS011;2463;49.948;8.472;2022-11-14T16:02:28;101.10;;;9.85;;
4895;SDS011;2463;49.948;8.472;2022-11-14T16:04:58;103.75;;;10.05;;
4895;SDS011;2463;49.948;8.472;2022-11-14T16:07:28;105.00;;;10.68;;
4895;SDS011;2463;49.948;8.472;2022-11-14T16:09:55;102.35;;;9.85;;
4895;SDS011;2463;49.948;8.472;2022-11-14T16:12:22;101.68;;;9.88;;
4895;SDS011;2463;49.948;8.472;2022-11-14T16:14:48;109.10;;;10.02;;
4895;SDS011;2463;49.948;8.472;2022-11-14T16:17:16;101.30;;;9.85;;
4895;SDS011;2463;49.948;8.472;2022-11-14T16:19:43;103.40;;;10.25;;
4895;SDS011;2463;49.948;8.472;2022-11-14T16:22:10;102.47;;;10.10;;
4895;SDS011;2463;49.948;8.472;2022-11-14T16:24:40;100.53;;;10.40;;
4895;SDS011;2463;49.948;8.472;2022-11-14T16:27:07;101.65;;;9.35;;
4895;SDS011;2463;49.948;8.472;2022-11-14T16:29:34;102.07;;;9.32;;
4895;SDS011;2463;49.948;8.472;2022-11-14T16:32:01;101.45;;;10.32;;